createdAt,value
2018-08-17T00:00:10.468Z,20.25
2018-08-17T00:00:41.594Z,20.25
2018-08-17T00:01:12.755Z,20.28
2018-08-17T00:01:43.876Z,20.26
2018-08-17T00:02:15.049Z,20.29
2018-08-17T00:02:46.229Z,20.28
2018-08-17T00:03:17.850Z,20.29
2018-08-17T00:03:49.105Z,20.27
2018-08-17T00:04:20.263Z,20.28
2018-08-17T00:04:51.420Z,20.30
2018-08-17T00:05:22.605Z,20.31
2018-08-17T00:05:53.790Z,20.32
2018-08-17T00:06:24.969Z,20.31
2018-08-17T00:06:56.082Z,20.31
2018-08-17T00:07:27.251Z,20.32
2018-08-17T00:07:58.475Z,20.27
2018-08-17T00:08:29.587Z,20.30
2018-08-17T00:09:00.701Z,20.30
2018-08-17T00:09:31.876Z,20.29
2018-08-17T00:10:03.003Z,20.27
2018-08-17T00:10:34.168Z,20.24
2018-08-17T00:11:05.297Z,20.23
2018-08-17T00:11:36.522Z,20.20
2018-08-17T00:12:07.641Z,20.16
2018-08-17T00:12:38.804Z,20.13
2018-08-17T00:13:10.027Z,20.10
2018-08-17T00:13:41.147Z,20.06
2018-08-17T00:14:12.312Z,20.04
2018-08-17T00:14:43.476Z,20.05
2018-08-17T00:15:14.654Z,20.06
2018-08-17T00:15:45.808Z,20.05
2018-08-17T00:16:16.980Z,20.08
2018-08-17T00:16:48.190Z,20.06
2018-08-17T00:17:19.374Z,20.05
2018-08-17T00:17:50.491Z,20.05
2018-08-17T00:18:21.712Z,20.07
2018-08-17T00:18:52.888Z,20.08
2018-08-17T00:19:24.014Z,20.09
2018-08-17T00:19:55.139Z,20.11
2018-08-17T00:20:26.260Z,20.12
2018-08-17T00:20:57.375Z,20.12
2018-08-17T00:21:28.613Z,20.11
2018-08-17T00:21:59.740Z,20.14
2018-08-17T00:22:30.852Z,20.14
2018-08-17T00:23:02.081Z,20.15
2018-08-17T00:23:33.240Z,20.14
2018-08-17T00:24:04.356Z,20.12
2018-08-17T00:24:35.528Z,20.12
2018-08-17T00:25:06.656Z,20.08
2018-08-17T00:25:37.763Z,20.07
2018-08-17T00:26:08.869Z,20.03
2018-08-17T00:26:40.049Z,20.01
2018-08-17T00:27:11.173Z,20.02
2018-08-17T00:27:42.393Z,20.03
2018-08-17T00:28:13.575Z,20.03
2018-08-17T00:28:44.693Z,20.00
2018-08-17T00:29:15.847Z,19.97
2018-08-17T00:29:46.963Z,19.98
2018-08-17T00:30:18.084Z,20.01
2018-08-17T00:30:49.256Z,19.94
2018-08-17T00:31:20.368Z,19.97
2018-08-17T00:31:51.545Z,19.97
2018-08-17T00:32:22.689Z,19.98
2018-08-17T00:32:53.917Z,20.02
2018-08-17T00:33:25.097Z,19.99
2018-08-17T00:33:56.212Z,20.00
2018-08-17T00:34:27.387Z,20.04
2018-08-17T00:34:58.566Z,20.08
2018-08-17T00:35:29.781Z,20.07
2018-08-17T00:36:00.913Z,20.10
2018-08-17T00:36:32.090Z,20.11
2018-08-17T00:37:03.330Z,20.13
2018-08-17T00:37:34.455Z,20.15
2018-08-17T00:38:05.617Z,20.15
2018-08-17T00:38:36.768Z,20.15
2018-08-17T00:39:07.886Z,20.17
2018-08-17T00:39:39.064Z,20.17
2018-08-17T00:40:10.240Z,20.15
2018-08-17T00:40:41.360Z,20.11
2018-08-17T00:41:12.531Z,20.07
2018-08-17T00:41:43.704Z,20.05
2018-08-17T00:42:14.816Z,20.06
2018-08-17T00:42:45.935Z,20.00
2018-08-17T00:43:17.112Z,20.00
2018-08-17T00:43:48.259Z,19.99
2018-08-17T00:44:19.374Z,20.00
2018-08-17T00:44:50.544Z,20.00
2018-08-17T00:45:21.776Z,19.97
2018-08-17T00:45:52.923Z,19.96
2018-08-17T00:46:24.105Z,19.94
2018-08-17T00:46:55.285Z,19.89
2018-08-17T00:47:26.443Z,19.88
2018-08-17T00:47:57.666Z,19.88
2018-08-17T00:48:28.845Z,19.89
2018-08-17T00:49:00.009Z,19.93
2018-08-17T00:49:32.126Z,19.91
2018-08-17T00:50:03.252Z,19.91
2018-08-17T00:50:34.448Z,19.96
2018-08-17T00:51:05.690Z,19.94
2018-08-17T00:51:36.829Z,19.96
2018-08-17T00:52:08.013Z,19.97
2018-08-17T00:52:39.223Z,19.98
2018-08-17T00:53:10.400Z,19.97
2018-08-17T00:53:41.581Z,19.97
2018-08-17T00:54:12.708Z,20.01
2018-08-17T00:54:43.934Z,19.99
2018-08-17T00:55:15.066Z,20.03
2018-08-17T00:55:46.247Z,20.01
2018-08-17T00:56:17.490Z,20.03
2018-08-17T00:56:48.705Z,20.05
2018-08-17T00:57:19.871Z,20.06
2018-08-17T00:57:51.089Z,20.09
2018-08-17T00:58:22.260Z,20.09
2018-08-17T00:58:53.495Z,20.03
2018-08-17T00:59:24.671Z,19.99
2018-08-17T00:59:55.853Z,19.98
2018-08-17T01:00:26.968Z,20.00
2018-08-17T01:00:58.083Z,19.94
2018-08-17T01:01:29.255Z,19.96
2018-08-17T01:02:00.484Z,19.97
2018-08-17T01:02:31.674Z,19.97
2018-08-17T01:03:02.800Z,19.96
2018-08-17T01:03:33.979Z,19.98
2018-08-17T01:04:05.211Z,19.97
2018-08-17T01:04:36.441Z,19.97
2018-08-17T01:05:07.676Z,19.95
2018-08-17T01:05:38.862Z,19.93
2018-08-17T01:06:10.025Z,19.89
2018-08-17T01:06:41.261Z,19.84
2018-08-17T01:07:12.372Z,19.84
2018-08-17T01:07:43.605Z,19.85
2018-08-17T01:08:14.739Z,19.85
2018-08-17T01:08:45.898Z,19.88
2018-08-17T01:09:17.012Z,19.88
2018-08-17T01:09:48.173Z,19.89
2018-08-17T01:10:19.299Z,19.89
2018-08-17T01:10:50.468Z,19.89
2018-08-17T01:11:21.684Z,19.90
2018-08-17T01:11:52.831Z,19.89
2018-08-17T01:12:23.980Z,19.88
2018-08-17T01:12:55.135Z,19.89
2018-08-17T01:13:26.300Z,19.91
2018-08-17T01:13:57.427Z,19.95
2018-08-17T01:14:28.597Z,19.94
2018-08-17T01:14:59.732Z,19.95
2018-08-17T01:15:30.982Z,19.93
2018-08-17T01:16:02.225Z,19.92
2018-08-17T01:16:33.462Z,19.86
2018-08-17T01:17:04.632Z,19.83
2018-08-17T01:17:35.873Z,19.84
2018-08-17T01:18:07.032Z,19.79
2018-08-17T01:18:38.156Z,19.76
2018-08-17T01:19:09.334Z,19.72
2018-08-17T01:19:40.513Z,19.71
2018-08-17T01:20:11.687Z,19.74
2018-08-17T01:20:42.940Z,19.74
2018-08-17T01:21:14.182Z,19.76
2018-08-17T01:21:45.414Z,19.76
2018-08-17T01:22:16.540Z,19.71
2018-08-17T01:22:47.655Z,19.73
2018-08-17T01:23:18.778Z,19.74
2018-08-17T01:23:49.944Z,19.74
2018-08-17T01:24:21.128Z,19.70
2018-08-17T01:24:52.358Z,19.70
2018-08-17T01:25:23.533Z,19.68
2018-08-17T01:25:54.659Z,19.67
2018-08-17T01:26:25.830Z,19.68
2018-08-17T01:26:57.054Z,19.69
2018-08-17T01:27:28.293Z,19.69
2018-08-17T01:27:59.411Z,19.70
2018-08-17T01:28:30.581Z,19.70
2018-08-17T01:29:01.763Z,19.71
2018-08-17T01:29:32.893Z,19.70
2018-08-17T01:30:04.077Z,19.68
2018-08-17T01:30:35.253Z,19.67
2018-08-17T01:31:06.486Z,19.66
2018-08-17T01:31:37.660Z,19.67
2018-08-17T01:32:08.779Z,19.67
2018-08-17T01:32:39.965Z,19.69
2018-08-17T01:33:11.145Z,19.70
2018-08-17T01:33:42.321Z,19.68
2018-08-17T01:34:13.443Z,19.68
2018-08-17T01:34:44.674Z,19.67
2018-08-17T01:35:15.799Z,19.66
2018-08-17T01:35:46.919Z,19.64
2018-08-17T01:36:18.105Z,19.61
2018-08-17T01:36:49.329Z,19.59
2018-08-17T01:37:20.455Z,19.59
2018-08-17T01:37:52.476Z,19.58
2018-08-17T01:38:23.640Z,19.55
2018-08-17T01:38:54.877Z,19.54
2018-08-17T01:39:26.003Z,19.52
2018-08-17T01:39:57.172Z,19.53
2018-08-17T01:40:28.301Z,19.53
2018-08-17T01:40:59.465Z,19.52
2018-08-17T01:41:30.591Z,19.50
2018-08-17T01:42:01.821Z,19.50
2018-08-17T01:42:32.989Z,19.49
2018-08-17T01:43:04.126Z,19.49
2018-08-17T01:43:35.306Z,19.48
2018-08-17T01:44:06.549Z,19.46
2018-08-17T01:44:37.776Z,19.46
2018-08-17T01:45:08.904Z,19.49
2018-08-17T01:45:40.085Z,19.50
2018-08-17T01:46:11.265Z,19.48
2018-08-17T01:46:42.432Z,19.49
2018-08-17T01:47:13.606Z,19.51
2018-08-17T01:47:44.776Z,19.52
2018-08-17T01:48:15.959Z,19.55
2018-08-17T01:48:47.149Z,19.55
2018-08-17T01:49:18.264Z,19.55
2018-08-17T01:49:49.436Z,19.54
2018-08-17T01:50:20.678Z,19.55
2018-08-17T01:50:51.851Z,19.54
2018-08-17T01:51:23.086Z,19.53
2018-08-17T01:51:54.265Z,19.53
2018-08-17T01:52:25.427Z,19.54
2018-08-17T01:52:56.537Z,19.55
2018-08-17T01:53:27.712Z,19.56
2018-08-17T01:53:58.831Z,19.50
2018-08-17T01:54:30.048Z,19.49
2018-08-17T01:55:01.201Z,19.48
2018-08-17T01:55:32.320Z,19.30
2018-08-17T01:56:03.428Z,19.43
2018-08-17T01:56:34.604Z,19.41
2018-08-17T01:57:05.741Z,19.40
2018-08-17T01:57:36.921Z,19.38
2018-08-17T01:58:08.036Z,19.35
2018-08-17T01:58:39.213Z,19.34
2018-08-17T01:59:10.331Z,19.33
2018-08-17T01:59:41.504Z,19.33
2018-08-17T02:00:12.713Z,19.31
2018-08-17T02:00:43.849Z,19.29
2018-08-17T02:01:15.012Z,19.30
2018-08-17T02:01:46.140Z,19.32
2018-08-17T02:02:17.260Z,19.32
2018-08-17T02:02:48.376Z,19.32
2018-08-17T02:03:19.509Z,19.33
2018-08-17T02:03:50.720Z,19.33
2018-08-17T02:04:21.832Z,19.33
2018-08-17T02:04:52.955Z,19.33
2018-08-17T02:05:24.132Z,19.33
2018-08-17T02:05:55.363Z,19.35
2018-08-17T02:06:26.526Z,19.36
2018-08-17T02:06:57.708Z,19.36
2018-08-17T02:07:28.821Z,19.38
2018-08-17T02:07:59.984Z,19.42
2018-08-17T02:08:31.221Z,19.44
2018-08-17T02:09:02.457Z,19.42
2018-08-17T02:09:33.628Z,19.44
2018-08-17T02:10:04.829Z,19.44
2018-08-17T02:10:36.009Z,19.40
2018-08-17T02:11:07.197Z,19.39
2018-08-17T02:11:38.385Z,19.36
2018-08-17T02:12:09.565Z,19.33
2018-08-17T02:12:40.673Z,19.31
2018-08-17T02:13:11.854Z,19.32
2018-08-17T02:13:42.975Z,19.31
2018-08-17T02:14:14.088Z,19.28
2018-08-17T02:14:45.370Z,19.24
2018-08-17T02:15:16.555Z,19.23
2018-08-17T02:15:47.785Z,19.21
2018-08-17T02:16:19.034Z,19.19
2018-08-17T02:16:50.278Z,19.19
2018-08-17T02:17:21.400Z,19.18
2018-08-17T02:17:52.577Z,19.18
2018-08-17T02:18:23.788Z,19.16
2018-08-17T02:18:55.025Z,19.14
2018-08-17T02:19:26.204Z,19.13
2018-08-17T02:19:57.311Z,19.12
2018-08-17T02:20:28.480Z,19.14
2018-08-17T02:20:59.656Z,19.14
2018-08-17T02:21:30.768Z,19.13
2018-08-17T02:22:01.998Z,19.14
2018-08-17T02:22:33.129Z,19.15
2018-08-17T02:23:04.240Z,19.15
2018-08-17T02:23:35.453Z,19.17
2018-08-17T02:24:06.573Z,19.19
2018-08-17T02:24:37.696Z,19.20
2018-08-17T02:25:08.886Z,19.21
2018-08-17T02:25:40.058Z,19.26
2018-08-17T02:26:11.183Z,19.28
2018-08-17T02:26:42.340Z,19.31
2018-08-17T02:27:13.525Z,19.32
2018-08-17T02:27:44.692Z,19.35
2018-08-17T02:28:15.852Z,19.36
2018-08-17T02:28:47.216Z,19.36
2018-08-17T02:29:18.400Z,19.35
2018-08-17T02:29:49.572Z,19.33
2018-08-17T02:30:20.818Z,19.32
2018-08-17T02:30:51.944Z,19.29
2018-08-17T02:31:23.137Z,19.26
2018-08-17T02:31:54.304Z,19.26
2018-08-17T02:32:25.420Z,19.23
2018-08-17T02:32:56.542Z,19.23
2018-08-17T02:33:27.721Z,19.21
2018-08-17T02:33:58.897Z,19.21
2018-08-17T02:34:30.028Z,19.21
2018-08-17T02:35:01.145Z,19.22
2018-08-17T02:35:32.328Z,19.22
2018-08-17T02:36:03.509Z,19.23
2018-08-17T02:36:34.688Z,19.22
2018-08-17T02:37:05.923Z,19.23
2018-08-17T02:37:37.109Z,19.24
2018-08-17T02:38:08.346Z,19.26
2018-08-17T02:38:39.476Z,19.27
2018-08-17T02:39:10.647Z,19.30
2018-08-17T02:39:41.772Z,19.33
2018-08-17T02:40:12.943Z,19.33
2018-08-17T02:40:44.068Z,19.38
2018-08-17T02:41:15.185Z,19.40
2018-08-17T02:41:46.369Z,19.44
2018-08-17T02:42:17.525Z,19.43
2018-08-17T02:42:48.757Z,19.44
2018-08-17T02:43:19.935Z,19.45
2018-08-17T02:43:51.117Z,19.47
2018-08-17T02:44:22.283Z,19.46
2018-08-17T02:44:53.516Z,19.46
2018-08-17T02:45:24.650Z,19.50
2018-08-17T02:45:55.775Z,19.53
2018-08-17T02:46:26.961Z,19.54
2018-08-17T02:46:58.150Z,19.57
2018-08-17T02:47:29.272Z,19.57
2018-08-17T02:48:00.449Z,19.55
2018-08-17T02:48:31.727Z,19.55
2018-08-17T02:49:02.859Z,19.52
2018-08-17T02:49:34.045Z,19.50
2018-08-17T02:50:05.167Z,19.50
2018-08-17T02:50:36.345Z,19.49
2018-08-17T02:51:07.501Z,19.47
2018-08-17T02:51:38.684Z,19.43
2018-08-17T02:52:09.874Z,19.42
2018-08-17T02:52:40.995Z,19.42
2018-08-17T02:53:12.126Z,19.42
2018-08-17T02:53:43.252Z,19.41
2018-08-17T02:54:14.463Z,19.42
2018-08-17T02:54:45.645Z,19.43
2018-08-17T02:55:16.771Z,19.44
2018-08-17T02:55:47.953Z,19.42
2018-08-17T02:56:19.112Z,19.42
2018-08-17T02:56:50.223Z,19.42
2018-08-17T02:57:21.403Z,19.43
2018-08-17T02:57:52.582Z,19.44
2018-08-17T02:58:23.832Z,19.44
2018-08-17T02:58:54.961Z,19.46
2018-08-17T02:59:26.149Z,19.49
2018-08-17T02:59:57.283Z,19.52
2018-08-17T03:00:28.448Z,19.54
2018-08-17T03:00:59.625Z,19.60
2018-08-17T03:01:30.809Z,19.62
2018-08-17T03:02:02.009Z,19.63
2018-08-17T03:02:33.185Z,19.62
2018-08-17T03:03:04.364Z,19.62
2018-08-17T03:03:35.484Z,19.63
2018-08-17T03:04:06.600Z,19.63
2018-08-17T03:04:37.724Z,19.63
2018-08-17T03:05:08.885Z,19.62
2018-08-17T03:05:40.057Z,19.65
2018-08-17T03:06:11.236Z,19.65
2018-08-17T03:06:42.364Z,19.67
2018-08-17T03:07:13.485Z,19.70
2018-08-17T03:07:44.647Z,19.71
2018-08-17T03:08:15.872Z,19.72
2018-08-17T03:08:46.996Z,19.71
2018-08-17T03:09:18.165Z,19.69
2018-08-17T03:09:49.363Z,19.65
2018-08-17T03:10:20.489Z,19.63
2018-08-17T03:10:51.614Z,19.59
2018-08-17T03:11:22.857Z,19.56
2018-08-17T03:11:54.036Z,19.54
2018-08-17T03:12:25.225Z,19.54
2018-08-17T03:12:56.436Z,19.52
2018-08-17T03:13:27.568Z,19.51
2018-08-17T03:13:58.741Z,19.51
2018-08-17T03:14:29.994Z,19.49
2018-08-17T03:15:01.188Z,19.48
2018-08-17T03:15:32.329Z,19.47
2018-08-17T03:16:03.447Z,19.44
2018-08-17T03:16:34.571Z,19.42
2018-08-17T03:17:05.935Z,19.40
2018-08-17T03:17:37.102Z,19.40
2018-08-17T03:18:08.269Z,19.38
2018-08-17T03:18:39.398Z,19.37
2018-08-17T03:19:11.163Z,19.36
2018-08-17T03:19:42.442Z,19.33
2018-08-17T03:20:13.566Z,19.36
2018-08-17T03:20:44.748Z,19.37
2018-08-17T03:21:15.882Z,19.38
2018-08-17T03:21:47.105Z,19.39
2018-08-17T03:22:18.289Z,19.38
2018-08-17T03:22:49.462Z,19.39
2018-08-17T03:23:20.588Z,19.41
2018-08-17T03:23:51.730Z,19.40
2018-08-17T03:24:23.002Z,19.39
2018-08-17T03:24:54.137Z,19.42
2018-08-17T03:25:25.252Z,19.42
2018-08-17T03:25:56.365Z,19.40
2018-08-17T03:26:27.494Z,19.39
2018-08-17T03:26:58.671Z,19.41
2018-08-17T03:27:29.853Z,19.42
2018-08-17T03:28:00.993Z,19.42
2018-08-17T03:28:32.118Z,19.39
2018-08-17T03:29:03.234Z,19.37
2018-08-17T03:29:34.409Z,19.34
2018-08-17T03:30:05.586Z,19.31
2018-08-17T03:30:36.711Z,19.26
2018-08-17T03:31:07.836Z,19.23
2018-08-17T03:31:38.947Z,19.21
2018-08-17T03:32:10.161Z,19.21
2018-08-17T03:32:41.338Z,19.20
2018-08-17T03:33:12.461Z,19.20
2018-08-17T03:33:43.581Z,19.19
2018-08-17T03:34:14.753Z,19.19
2018-08-17T03:34:45.884Z,19.17
2018-08-17T03:35:17.004Z,19.16
2018-08-17T03:35:48.237Z,19.14
2018-08-17T03:36:19.371Z,19.14
2018-08-17T03:36:50.576Z,19.11
2018-08-17T03:37:21.765Z,19.10
2018-08-17T03:37:52.929Z,19.10
2018-08-17T03:38:24.171Z,19.11
2018-08-17T03:38:55.297Z,19.13
2018-08-17T03:39:26.405Z,19.13
2018-08-17T03:39:57.577Z,19.15
2018-08-17T03:40:28.764Z,19.15
2018-08-17T03:40:59.885Z,19.14
2018-08-17T03:41:31.060Z,19.14
2018-08-17T03:42:02.284Z,19.16
2018-08-17T03:42:33.411Z,19.15
2018-08-17T03:43:04.589Z,19.14
2018-08-17T03:43:35.768Z,19.15
2018-08-17T03:44:06.949Z,19.16
2018-08-17T03:44:38.125Z,19.16
2018-08-17T03:45:09.253Z,19.18
2018-08-17T03:45:40.423Z,19.23
2018-08-17T03:46:11.644Z,19.25
2018-08-17T03:46:42.836Z,19.30
2018-08-17T03:47:13.950Z,19.32
2018-08-17T03:47:45.124Z,19.33
2018-08-17T03:48:16.246Z,19.34
2018-08-17T03:48:47.469Z,19.33
2018-08-17T03:49:18.639Z,19.31
2018-08-17T03:49:49.827Z,19.29
2018-08-17T03:50:20.979Z,19.28
2018-08-17T03:50:52.099Z,19.27
2018-08-17T03:51:23.260Z,19.27
2018-08-17T03:51:54.387Z,19.29
2018-08-17T03:52:25.572Z,19.31
2018-08-17T03:52:56.745Z,19.36
2018-08-17T03:53:27.868Z,19.44
2018-08-17T03:53:59.044Z,19.53
2018-08-17T03:54:30.222Z,19.62
2018-08-17T03:55:01.461Z,19.73
2018-08-17T03:55:32.628Z,19.84
2018-08-17T03:56:03.806Z,19.92
2018-08-17T03:56:34.924Z,20.02
2018-08-17T03:57:06.753Z,20.14
2018-08-17T03:57:37.996Z,20.27
2018-08-17T03:58:09.127Z,20.40
2018-08-17T03:58:40.312Z,20.51
2018-08-17T03:59:12.354Z,20.58
2018-08-17T03:59:43.580Z,20.69
2018-08-17T04:00:14.812Z,20.75
2018-08-17T04:00:45.975Z,20.80
2018-08-17T04:01:17.136Z,20.83
2018-08-17T04:01:48.304Z,20.86
2018-08-17T04:02:19.417Z,20.87
2018-08-17T04:02:50.579Z,20.84
2018-08-17T04:03:21.704Z,20.81
2018-08-17T04:03:52.884Z,20.77
2018-08-17T04:04:24.000Z,20.70
2018-08-17T04:04:55.176Z,20.64
2018-08-17T04:05:26.303Z,20.60
2018-08-17T04:05:57.486Z,20.56
2018-08-17T04:06:28.715Z,20.53
2018-08-17T04:06:59.915Z,20.55
2018-08-17T04:07:31.145Z,20.53
2018-08-17T04:08:02.330Z,20.58
2018-08-17T04:08:33.443Z,20.68
2018-08-17T04:09:04.563Z,20.78
2018-08-17T04:09:35.737Z,20.88
2018-08-17T04:10:06.904Z,21.01
2018-08-17T04:10:38.090Z,21.13
2018-08-17T04:11:09.261Z,21.24
2018-08-17T04:11:40.408Z,21.36
2018-08-17T04:12:11.579Z,21.44
2018-08-17T04:12:42.793Z,21.51
2018-08-17T04:13:13.941Z,21.55
2018-08-17T04:13:45.051Z,21.64
2018-08-17T04:14:16.236Z,21.67
2018-08-17T04:14:47.370Z,21.63
2018-08-17T04:15:18.491Z,21.52
2018-08-17T04:15:49.614Z,21.42
2018-08-17T04:16:20.720Z,21.32
2018-08-17T04:16:51.979Z,21.27
2018-08-17T04:17:23.152Z,21.27
2018-08-17T04:17:54.264Z,21.26
2018-08-17T04:18:25.375Z,21.32
2018-08-17T04:18:56.496Z,21.45
2018-08-17T04:19:27.659Z,21.60
2018-08-17T04:19:58.783Z,21.78
2018-08-17T04:20:29.896Z,21.95
2018-08-17T04:21:01.060Z,22.16
2018-08-17T04:21:32.171Z,22.39
2018-08-17T04:22:03.284Z,22.59
2018-08-17T04:22:34.509Z,22.80
2018-08-17T04:23:05.627Z,22.95
2018-08-17T04:23:36.801Z,23.07
2018-08-17T04:24:07.974Z,23.25
2018-08-17T04:24:39.195Z,23.37
2018-08-17T04:25:10.352Z,23.45
2018-08-17T04:25:41.522Z,23.53
2018-08-17T04:26:12.644Z,23.64
2018-08-17T04:26:43.748Z,23.74
2018-08-17T04:27:14.852Z,23.83
2018-08-17T04:27:45.969Z,23.93
2018-08-17T04:28:17.140Z,24.05
2018-08-17T04:28:48.312Z,24.15
2018-08-17T04:29:19.481Z,24.25
2018-08-17T04:29:50.600Z,24.36
2018-08-17T04:30:21.739Z,24.44
2018-08-17T04:30:52.844Z,24.53
2018-08-17T04:31:24.008Z,24.63
2018-08-17T04:31:55.185Z,24.66
2018-08-17T04:32:26.409Z,24.69
2018-08-17T04:32:57.524Z,24.75
2018-08-17T04:33:28.696Z,24.82
2018-08-17T04:33:59.856Z,24.95
2018-08-17T04:34:31.032Z,25.07
2018-08-17T04:35:02.148Z,25.09
2018-08-17T04:35:33.371Z,25.15
2018-08-17T04:36:04.456Z,25.24
2018-08-17T04:36:35.576Z,25.38
2018-08-17T04:37:06.750Z,25.51
2018-08-17T04:37:37.987Z,25.64
2018-08-17T04:38:09.182Z,25.67
2018-08-17T04:38:40.291Z,25.75
2018-08-17T04:39:11.422Z,25.77
2018-08-17T04:39:42.602Z,25.78
2018-08-17T04:40:13.773Z,25.76
2018-08-17T04:40:44.992Z,25.81
2018-08-17T04:41:16.115Z,25.85
2018-08-17T04:41:47.226Z,25.96
2018-08-17T04:42:18.404Z,26.04
2018-08-17T04:42:49.575Z,26.08
2018-08-17T04:43:20.700Z,26.16
2018-08-17T04:43:51.947Z,26.22
2018-08-17T04:44:23.079Z,26.20
2018-08-17T04:44:54.208Z,26.23
2018-08-17T04:45:25.390Z,26.26
2018-08-17T04:45:56.615Z,26.24
2018-08-17T04:46:27.795Z,26.20
2018-08-17T04:46:58.966Z,26.12
2018-08-17T04:47:30.088Z,26.11
2018-08-17T04:48:01.312Z,26.17
2018-08-17T04:48:32.428Z,26.15
2018-08-17T04:49:03.604Z,26.10
2018-08-17T04:49:34.765Z,26.17
2018-08-17T04:50:05.992Z,26.17
2018-08-17T04:50:37.118Z,26.08
2018-08-17T04:51:08.289Z,26.24
2018-08-17T04:51:39.411Z,26.34
2018-08-17T04:52:10.644Z,26.49
2018-08-17T04:52:41.816Z,26.65
2018-08-17T04:53:12.997Z,26.72
2018-08-17T04:53:44.112Z,26.85
2018-08-17T04:54:15.336Z,26.84
2018-08-17T04:54:46.513Z,27.00
2018-08-17T04:55:17.680Z,26.91
2018-08-17T04:55:48.807Z,27.07
2018-08-17T04:56:19.979Z,27.10
2018-08-17T04:56:51.103Z,27.24
2018-08-17T04:57:22.231Z,27.22
2018-08-17T04:57:53.347Z,27.20
2018-08-17T04:58:24.457Z,27.19
2018-08-17T04:58:55.581Z,27.27
2018-08-17T04:59:26.692Z,27.30
2018-08-17T04:59:57.869Z,27.28
2018-08-17T05:00:29.040Z,27.40
2018-08-17T05:01:00.214Z,27.40
2018-08-17T05:01:31.445Z,27.44
2018-08-17T05:02:02.622Z,27.52
2018-08-17T05:02:33.800Z,27.48
2018-08-17T05:03:04.936Z,27.38
2018-08-17T05:03:36.175Z,27.43
2018-08-17T05:04:07.366Z,27.42
2018-08-17T05:04:38.535Z,27.48
2018-08-17T05:05:09.665Z,27.58
2018-08-17T05:05:40.876Z,27.72
2018-08-17T05:06:12.052Z,27.80
2018-08-17T05:06:43.172Z,27.89
2018-08-17T05:07:14.387Z,27.91
2018-08-17T05:07:45.566Z,28.05
2018-08-17T05:08:16.752Z,28.21
2018-08-17T05:08:47.897Z,28.29
2018-08-17T05:09:19.074Z,28.24
2018-08-17T05:09:50.244Z,28.12
2018-08-17T05:10:21.432Z,28.05
2018-08-17T05:10:52.609Z,28.04
2018-08-17T05:11:23.778Z,28.07
2018-08-17T05:11:54.904Z,28.08
2018-08-17T05:12:26.137Z,28.19
2018-08-17T05:12:57.354Z,28.33
2018-08-17T05:13:28.545Z,28.50
2018-08-17T05:13:59.664Z,28.60
2018-08-17T05:14:30.790Z,28.63
2018-08-17T05:15:01.919Z,28.73
2018-08-17T05:15:33.092Z,28.82
2018-08-17T05:16:04.228Z,28.91
2018-08-17T05:16:35.348Z,28.94
2018-08-17T05:17:06.877Z,28.96
2018-08-17T05:17:38.011Z,28.96
2018-08-17T05:18:09.237Z,28.96
2018-08-17T05:18:40.429Z,29.08
2018-08-17T05:19:11.556Z,29.09
2018-08-17T05:19:42.688Z,29.01
2018-08-17T05:20:13.861Z,28.93
2018-08-17T05:20:45.045Z,28.98
2018-08-17T05:21:16.297Z,29.08
2018-08-17T05:21:47.484Z,29.17
2018-08-17T05:22:18.621Z,29.25
2018-08-17T05:22:49.751Z,29.16
2018-08-17T05:23:21.074Z,29.16
2018-08-17T05:23:52.200Z,29.16
2018-08-17T05:24:23.436Z,29.19
2018-08-17T05:24:54.628Z,29.20
2018-08-17T05:25:25.800Z,29.19
2018-08-17T05:25:56.929Z,29.22
2018-08-17T05:26:28.051Z,29.12
2018-08-17T05:26:59.256Z,29.05
2018-08-17T05:27:30.433Z,28.91
2018-08-17T05:28:01.612Z,28.85
2018-08-17T05:28:32.743Z,28.77
2018-08-17T05:29:03.925Z,28.78
2018-08-17T05:29:35.168Z,28.85
2018-08-17T05:30:06.357Z,28.77
2018-08-17T05:30:37.536Z,28.60
2018-08-17T05:31:08.658Z,28.43
2018-08-17T05:31:39.897Z,28.28
2018-08-17T05:32:11.024Z,28.35
2018-08-17T05:32:42.144Z,28.30
2018-08-17T05:33:13.369Z,28.33
2018-08-17T05:33:44.495Z,28.34
2018-08-17T05:34:15.757Z,28.17
2018-08-17T05:34:46.888Z,28.06
2018-08-17T05:35:18.544Z,28.01
2018-08-17T05:35:49.796Z,28.03
2018-08-17T05:36:20.959Z,28.07
2018-08-17T05:36:52.083Z,28.08
2018-08-17T05:37:23.214Z,27.79
2018-08-17T05:37:54.372Z,27.67
2018-08-17T05:38:25.532Z,27.72
2018-08-17T05:38:56.713Z,27.74
2018-08-17T05:39:27.837Z,27.85
2018-08-17T05:39:59.074Z,27.80
2018-08-17T05:40:30.297Z,27.70
2018-08-17T05:41:01.537Z,27.69
2018-08-17T05:41:32.717Z,27.79
2018-08-17T05:42:03.905Z,27.83
2018-08-17T05:42:35.078Z,27.85
2018-08-17T05:43:06.286Z,27.66
2018-08-17T05:43:37.416Z,27.53
2018-08-17T05:44:08.537Z,27.52
2018-08-17T05:44:39.873Z,27.49
2018-08-17T05:45:11.036Z,27.51
2018-08-17T05:45:42.202Z,27.55
2018-08-17T05:46:13.391Z,27.76
2018-08-17T05:46:44.584Z,27.92
2018-08-17T05:47:15.824Z,28.08
2018-08-17T05:47:46.948Z,28.18
2018-08-17T05:48:18.146Z,28.15
2018-08-17T05:48:49.378Z,28.09
2018-08-17T05:49:20.564Z,28.07
2018-08-17T05:49:51.781Z,28.08
2018-08-17T05:50:22.948Z,28.01
2018-08-17T05:50:54.089Z,28.04
2018-08-17T05:51:25.280Z,28.10
2018-08-17T05:51:56.480Z,28.10
2018-08-17T05:52:27.629Z,28.09
2018-08-17T05:52:58.880Z,28.10
2018-08-17T05:53:30.042Z,27.93
2018-08-17T05:54:01.216Z,27.88
2018-08-17T05:54:32.411Z,27.78
2018-08-17T05:55:03.544Z,27.74
2018-08-17T05:55:34.748Z,27.67
2018-08-17T05:56:05.916Z,27.61
2018-08-17T05:56:37.119Z,27.54
2018-08-17T05:57:08.291Z,27.37
2018-08-17T05:57:39.512Z,27.25
2018-08-17T05:58:10.733Z,27.22
2018-08-17T05:58:41.860Z,27.24
2018-08-17T05:59:12.970Z,27.14
2018-08-17T05:59:44.092Z,26.97
2018-08-17T06:00:15.272Z,26.97
2018-08-17T06:00:46.430Z,26.94
2018-08-17T06:01:17.597Z,27.02
2018-08-17T06:01:48.777Z,27.06
2018-08-17T06:02:20.006Z,27.10
2018-08-17T06:02:51.182Z,27.00
2018-08-17T06:03:22.457Z,26.96
2018-08-17T06:03:53.597Z,26.96
2018-08-17T06:04:24.706Z,26.98
2018-08-17T06:04:55.862Z,26.98
2018-08-17T06:05:27.054Z,27.03
2018-08-17T06:05:58.233Z,27.04
2018-08-17T06:06:29.410Z,27.06
2018-08-17T06:07:00.518Z,27.03
2018-08-17T06:07:31.666Z,26.92
2018-08-17T06:08:02.876Z,26.99
2018-08-17T06:08:33.984Z,27.03
2018-08-17T06:09:05.107Z,27.08
2018-08-17T06:09:36.223Z,26.99
2018-08-17T06:10:07.384Z,26.88
2018-08-17T06:10:38.564Z,26.77
2018-08-17T06:11:09.922Z,26.78
2018-08-17T06:11:40.948Z,26.86
2018-08-17T06:12:12.040Z,26.90
2018-08-17T06:12:43.203Z,26.94
2018-08-17T06:13:14.356Z,27.02
2018-08-17T06:13:45.541Z,27.09
2018-08-17T06:14:16.760Z,27.13
2018-08-17T06:14:47.893Z,27.17
2018-08-17T06:15:19.016Z,27.27
2018-08-17T06:15:50.189Z,27.24
2018-08-17T06:16:21.362Z,27.20
2018-08-17T06:16:52.530Z,27.28
2018-08-17T06:17:23.708Z,27.33
2018-08-17T06:17:54.977Z,27.35
2018-08-17T06:18:26.165Z,27.30
2018-08-17T06:18:57.333Z,27.18
2018-08-17T06:19:28.524Z,27.24
2018-08-17T06:19:59.764Z,27.26
2018-08-17T06:20:30.884Z,27.33
2018-08-17T06:21:01.984Z,27.37
2018-08-17T06:21:33.165Z,27.41
2018-08-17T06:22:04.331Z,27.36
2018-08-17T06:22:35.503Z,27.36
2018-08-17T06:23:06.680Z,27.43
2018-08-17T06:23:37.897Z,27.44
2018-08-17T06:24:09.106Z,27.49
2018-08-17T06:24:40.317Z,27.51
2018-08-17T06:25:11.468Z,27.47
2018-08-17T06:25:42.634Z,27.48
2018-08-17T06:26:13.809Z,27.48
2018-08-17T06:26:44.991Z,27.55
2018-08-17T06:27:16.148Z,27.56
2018-08-17T06:27:47.265Z,27.49
2018-08-17T06:28:18.461Z,27.44
2018-08-17T06:28:49.652Z,27.43
2018-08-17T06:29:20.767Z,27.41
2018-08-17T06:29:51.945Z,27.32
2018-08-17T06:30:23.116Z,27.28
2018-08-17T06:30:54.303Z,27.25
2018-08-17T06:31:25.485Z,27.22
2018-08-17T06:31:56.649Z,27.26
2018-08-17T06:32:27.903Z,27.30
2018-08-17T06:32:59.015Z,27.32
2018-08-17T06:33:30.128Z,27.35
2018-08-17T06:34:01.238Z,27.42
2018-08-17T06:34:32.365Z,27.48
2018-08-17T06:35:03.540Z,27.53
2018-08-17T06:35:34.666Z,27.53
2018-08-17T06:36:05.885Z,27.53
2018-08-17T06:36:37.164Z,27.53
2018-08-17T06:37:08.315Z,27.52
2018-08-17T06:37:39.528Z,27.59
2018-08-17T06:38:10.765Z,27.64
2018-08-17T06:38:41.883Z,27.73
2018-08-17T06:39:13.092Z,27.79
2018-08-17T06:39:44.211Z,27.74
2018-08-17T06:40:15.323Z,27.86
2018-08-17T06:40:46.445Z,27.90
2018-08-17T06:41:17.570Z,27.97